sensor_id;sensor_type;location;lat;lon;timestamp;P1;durP1;ratioP1;P2;durP2;ratioP2
20271;SDS011;10295;49.812;9.866;2023-09-30T00:00:10;8.20;;;2.10;;
20271;SDS011;10295;49.812;9.866;2023-09-30T00:02:37;7.93;;;1.90;;
20271;SDS011;10295;49.812;9.866;2023-09-30T00:05:05;7.10;;;1.90;;
20271;SDS011;10295;49.812;9.866;2023-09-30T00:07:33;7.47;;;1.93;;
20271;SDS011;10295;49.812;9.866;2023-09-30T00:10:00;5.93;;;1.70;;
20271;SDS011;10295;49.812;9.866;2023-09-30T00:12:27;7.03;;;1.90;;
20271;SDS011;10295;49.812;9.866;2023-09-30T00:14:54;5.93;;;1.73;;
20271;SDS011;10295;49.812;9.866;2023-09-30T00:17:22;6.97;;;2.00;;
20271;SDS011;10295;49.812;9.866;2023-09-30T00:19:49;11.40;;;2.30;;
20271;SDS011;10295;49.812;9.866;2023-09-30T00:22:16;9.87;;;1.90;;
20271;SDS011;10295;49.812;9.866;2023-09-30T00:24:43;9.67;;;2.00;;
20271;SDS011;10295;49.812;9.866;2023-09-30T00:27:10;7.97;;;1.93;;
20271;SDS011;10295;49.812;9.866;2023-09-30T00:29:38;10.37;;;2.10;;
20271;SDS011;10295;49.812;9.866;2023-09-30T00:32:05;9.83;;;2.27;;
20271;SDS011;10295;49.812;9.866;2023-09-30T00:34:33;8.97;;;1.83;;
20271;SDS011;10295;49.812;9.866;2023-09-30T00:37:01;10.93;;;2.20;;
20271;SDS011;10295;49.812;9.866;2023-09-30T00:39:28;10.90;;;1.97;;
20271;SDS011;10295;49.812;9.866;2023-09-30T00:41:57;8.60;;;1.97;;
20271;SDS011;10295;49.812;9.866;2023-09-30T00:44:25;9.83;;;2.10;;
20271;SDS011;10295;49.812;9.866;2023-09-30T00:46:53;8.00;;;2.00;;
20271;SDS011;10295;49.812;9.866;2023-09-30T00:49:23;8.10;;;2.10;;
20271;SDS011;10295;49.812;9.866;2023-09-30T00:51:50;9.73;;;2.13;;
20271;SDS011;10295;49.812;9.866;2023-09-30T00:54:18;10.57;;;2.00;;
20271;SDS011;10295;49.812;9.866;2023-09-30T00:56:46;9.37;;;2.10;;
20271;SDS011;10295;49.812;9.866;2023-09-30T00:59:13;8.97;;;2.03;;
20271;SDS011;10295;49.812;9.866;2023-09-30T01:01:44;11.20;;;1.97;;
20271;SDS011;10295;49.812;9.866;2023-09-30T01:04:11;10.47;;;2.07;;
20271;SDS011;10295;49.812;9.866;2023-09-30T01:06:39;7.20;;;1.73;;
20271;SDS011;10295;49.812;9.866;2023-09-30T01:09:07;9.00;;;1.90;;
20271;SDS011;10295;49.812;9.866;2023-09-30T01:11:35;9.40;;;2.20;;
20271;SDS011;10295;49.812;9.866;2023-09-30T01:14:02;7.43;;;2.03;;
20271;SDS011;10295;49.812;9.866;2023-09-30T01:16:29;7.47;;;2.10;;
20271;SDS011;10295;49.812;9.866;2023-09-30T01:18:56;9.67;;;1.93;;
20271;SDS011;10295;49.812;9.866;2023-09-30T01:21:24;7.67;;;2.03;;
20271;SDS011;10295;49.812;9.866;2023-09-30T01:23:54;7.83;;;2.10;;
20271;SDS011;10295;49.812;9.866;2023-09-30T01:26:21;8.03;;;1.90;;
20271;SDS011;10295;49.812;9.866;2023-09-30T01:28:49;12.63;;;2.30;;
20271;SDS011;10295;49.812;9.866;2023-09-30T01:31:16;8.83;;;2.07;;
20271;SDS011;10295;49.812;9.866;2023-09-30T01:33:43;9.17;;;2.23;;
20271;SDS011;10295;49.812;9.866;2023-09-30T01:36:10;11.83;;;2.47;;
20271;SDS011;10295;49.812;9.866;2023-09-30T01:38:38;11.10;;;2.50;;
20271;SDS011;10295;49.812;9.866;2023-09-30T01:41:05;12.57;;;2.30;;
20271;SDS011;10295;49.812;9.866;2023-09-30T01:43:32;9.67;;;2.27;;
20271;SDS011;10295;49.812;9.866;2023-09-30T01:46:02;8.23;;;2.40;;
20271;SDS011;10295;49.812;9.866;2023-09-30T01:48:29;10.17;;;2.43;;
20271;SDS011;10295;49.812;9.866;2023-09-30T01:50:56;11.00;;;2.60;;
20271;SDS011;10295;49.812;9.866;2023-09-30T01:53:24;9.60;;;2.37;;
20271;SDS011;10295;49.812;9.866;2023-09-30T01:55:51;9.33;;;2.60;;
20271;SDS011;10295;49.812;9.866;2023-09-30T01:58:18;8.57;;;2.20;;
20271;SDS011;10295;49.812;9.866;2023-09-30T02:00:45;9.80;;;2.23;;
20271;SDS011;10295;49.812;9.866;2023-09-30T02:03:12;16.33;;;2.77;;
20271;SDS011;10295;49.812;9.866;2023-09-30T02:05:40;8.53;;;2.43;;
20271;SDS011;10295;49.812;9.866;2023-09-30T02:08:07;7.73;;;2.07;;
20271;SDS011;10295;49.812;9.866;2023-09-30T02:10:34;9.13;;;2.30;;
20271;SDS011;10295;49.812;9.866;2023-09-30T02:13:02;8.83;;;2.57;;
20271;SDS011;10295;49.812;9.866;2023-09-30T02:15:32;9.13;;;2.20;;
20271;SDS011;10295;49.812;9.866;2023-09-30T02:18:00;10.40;;;2.53;;
20271;SDS011;10295;49.812;9.866;2023-09-30T02:20:27;9.50;;;2.47;;
20271;SDS011;10295;49.812;9.866;2023-09-30T02:22:57;8.60;;;2.20;;
20271;SDS011;10295;49.812;9.866;2023-09-30T02:25:25;12.07;;;2.47;;
20271;SDS011;10295;49.812;9.866;2023-09-30T02:27:52;8.97;;;2.27;;
20271;SDS011;10295;49.812;9.866;2023-09-30T02:30:19;9.03;;;2.20;;
20271;SDS011;10295;49.812;9.866;2023-09-30T02:32:47;9.37;;;2.20;;
20271;SDS011;10295;49.812;9.866;2023-09-30T02:35:14;9.57;;;2.10;;
20271;SDS011;10295;49.812;9.866;2023-09-30T02:37:42;10.87;;;2.60;;
20271;SDS011;10295;49.812;9.866;2023-09-30T02:40:09;10.37;;;2.43;;
20271;SDS011;10295;49.812;9.866;2023-09-30T02:42:37;9.20;;;2.30;;
20271;SDS011;10295;49.812;9.866;2023-09-30T02:45:05;8.73;;;2.20;;
20271;SDS011;10295;49.812;9.866;2023-09-30T02:47:34;10.07;;;2.50;;
20271;SDS011;10295;49.812;9.866;2023-09-30T02:50:02;7.97;;;2.00;;
20271;SDS011;10295;49.812;9.866;2023-09-30T02:52:30;9.83;;;2.20;;
20271;SDS011;10295;49.812;9.866;2023-09-30T02:54:58;10.43;;;2.43;;
20271;SDS011;10295;49.812;9.866;2023-09-30T02:57:25;9.20;;;2.40;;
20271;SDS011;10295;49.812;9.866;2023-09-30T02:59:58;8.60;;;2.00;;
20271;SDS011;10295;49.812;9.866;2023-09-30T03:02:27;9.33;;;2.37;;
20271;SDS011;10295;49.812;9.866;2023-09-30T03:04:56;8.53;;;2.03;;
20271;SDS011;10295;49.812;9.866;2023-09-30T03:07:24;13.37;;;2.63;;
20271;SDS011;10295;49.812;9.866;2023-09-30T03:09:52;10.47;;;2.47;;
20271;SDS011;10295;49.812;9.866;2023-09-30T03:12:20;13.17;;;2.53;;
20271;SDS011;10295;49.812;9.866;2023-09-30T03:14:47;10.60;;;2.30;;
20271;SDS011;10295;49.812;9.866;2023-09-30T03:17:15;9.63;;;2.27;;
20271;SDS011;10295;49.812;9.866;2023-09-30T03:19:42;8.57;;;2.30;;
20271;SDS011;10295;49.812;9.866;2023-09-30T03:22:09;10.87;;;2.50;;
20271;SDS011;10295;49.812;9.866;2023-09-30T03:24:38;9.17;;;2.17;;
20271;SDS011;10295;49.812;9.866;2023-09-30T03:27:06;11.83;;;2.40;;
20271;SDS011;10295;49.812;9.866;2023-09-30T03:29:37;9.17;;;2.30;;
20271;SDS011;10295;49.812;9.866;2023-09-30T03:32:05;8.17;;;2.33;;
20271;SDS011;10295;49.812;9.866;2023-09-30T03:34:33;9.73;;;2.47;;
20271;SDS011;10295;49.812;9.866;2023-09-30T03:37:03;7.90;;;2.10;;
20271;SDS011;10295;49.812;9.866;2023-09-30T03:39:34;10.50;;;2.30;;
20271;SDS011;10295;49.812;9.866;2023-09-30T03:42:01;8.23;;;2.17;;
20271;SDS011;10295;49.812;9.866;2023-09-30T03:44:29;9.33;;;2.30;;
20271;SDS011;10295;49.812;9.866;2023-09-30T03:46:56;10.03;;;2.13;;
20271;SDS011;10295;49.812;9.866;2023-09-30T03:49:25;10.30;;;2.30;;
20271;SDS011;10295;49.812;9.866;2023-09-30T03:51:55;14.83;;;2.60;;
20271;SDS011;10295;49.812;9.866;2023-09-30T03:54:22;10.67;;;2.37;;
20271;SDS011;10295;49.812;9.866;2023-09-30T03:56:49;11.60;;;2.47;;
20271;SDS011;10295;49.812;9.866;2023-09-30T03:59:16;10.87;;;2.60;;
20271;SDS011;10295;49.812;9.866;2023-09-30T04:01:45;10.27;;;2.30;;
20271;SDS011;10295;49.812;9.866;2023-09-30T04:04:14;8.80;;;2.27;;
20271;SDS011;10295;49.812;9.866;2023-09-30T04:06:41;8.77;;;2.33;;
20271;SDS011;10295;49.812;9.866;2023-09-30T04:09:09;14.33;;;2.30;;
20271;SDS011;10295;49.812;9.866;2023-09-30T04:11:37;8.83;;;2.20;;
20271;SDS011;10295;49.812;9.866;2023-09-30T04:14:07;11.53;;;2.20;;
20271;SDS011;10295;49.812;9.866;2023-09-30T04:16:35;14.77;;;2.83;;
20271;SDS011;10295;49.812;9.866;2023-09-30T04:19:06;6.83;;;2.00;;
20271;SDS011;10295;49.812;9.866;2023-09-30T04:21:36;11.23;;;2.40;;
20271;SDS011;10295;49.812;9.866;2023-09-30T04:24:05;11.30;;;2.37;;
20271;SDS011;10295;49.812;9.866;2023-09-30T04:26:33;9.93;;;2.50;;
20271;SDS011;10295;49.812;9.866;2023-09-30T04:29:01;11.30;;;2.63;;
20271;SDS011;10295;49.812;9.866;2023-09-30T04:31:28;9.93;;;2.20;;
20271;SDS011;10295;49.812;9.866;2023-09-30T04:33:56;9.37;;;2.47;;
20271;SDS011;10295;49.812;9.866;2023-09-30T04:36:28;9.77;;;2.27;;
20271;SDS011;10295;49.812;9.866;2023-09-30T04:38:57;9.20;;;2.60;;
20271;SDS011;10295;49.812;9.866;2023-09-30T04:41:27;11.17;;;2.50;;
20271;SDS011;10295;49.812;9.866;2023-09-30T04:43:54;8.63;;;2.27;;
20271;SDS011;10295;49.812;9.866;2023-09-30T04:46:22;10.17;;;2.27;;
20271;SDS011;10295;49.812;9.866;2023-09-30T04:48:50;8.87;;;2.20;;
20271;SDS011;10295;49.812;9.866;2023-09-30T04:51:19;10.47;;;2.53;;
20271;SDS011;10295;49.812;9.866;2023-09-30T04:53:48;10.93;;;2.50;;
20271;SDS011;10295;49.812;9.866;2023-09-30T04:56:15;11.33;;;2.60;;
20271;SDS011;10295;49.812;9.866;2023-09-30T04:58:42;13.60;;;2.43;;
20271;SDS011;10295;49.812;9.866;2023-09-30T05:01:10;9.63;;;2.27;;
20271;SDS011;10295;49.812;9.866;2023-09-30T05:03:38;10.57;;;2.80;;
20271;SDS011;10295;49.812;9.866;2023-09-30T05:06:06;11.90;;;2.50;;
20271;SDS011;10295;49.812;9.866;2023-09-30T05:08:34;15.80;;;3.37;;
20271;SDS011;10295;49.812;9.866;2023-09-30T05:11:02;13.30;;;2.33;;
20271;SDS011;10295;49.812;9.866;2023-09-30T05:13:31;13.57;;;2.80;;
20271;SDS011;10295;49.812;9.866;2023-09-30T05:16:00;11.20;;;2.47;;
20271;SDS011;10295;49.812;9.866;2023-09-30T05:18:28;10.90;;;2.70;;
20271;SDS011;10295;49.812;9.866;2023-09-30T05:20:57;10.73;;;2.60;;
20271;SDS011;10295;49.812;9.866;2023-09-30T05:23:27;9.30;;;2.40;;
20271;SDS011;10295;49.812;9.866;2023-09-30T05:25:56;11.07;;;2.90;;
20271;SDS011;10295;49.812;9.866;2023-09-30T05:28:24;13.23;;;2.67;;
20271;SDS011;10295;49.812;9.866;2023-09-30T05:30:52;10.60;;;2.80;;
20271;SDS011;10295;49.812;9.866;2023-09-30T05:33:19;11.90;;;2.83;;
20271;SDS011;10295;49.812;9.866;2023-09-30T05:35:46;14.77;;;2.77;;
20271;SDS011;10295;49.812;9.866;2023-09-30T05:38:14;15.40;;;3.10;;
20271;SDS011;10295;49.812;9.866;2023-09-30T05:40:42;11.17;;;2.47;;
20271;SDS011;10295;49.812;9.866;2023-09-30T05:43:09;12.97;;;2.93;;
20271;SDS011;10295;49.812;9.866;2023-09-30T05:45:40;10.77;;;2.73;;
20271;SDS011;10295;49.812;9.866;2023-09-30T05:48:16;10.43;;;2.50;;
20271;SDS011;10295;49.812;9.866;2023-09-30T05:50:43;11.80;;;2.80;;
20271;SDS011;10295;49.812;9.866;2023-09-30T05:53:12;11.53;;;2.57;;
20271;SDS011;10295;49.812;9.866;2023-09-30T05:55:40;10.73;;;2.80;;
20271;SDS011;10295;49.812;9.866;2023-09-30T05:58:13;9.40;;;2.60;;
20271;SDS011;10295;49.812;9.866;2023-09-30T06:00:43;11.80;;;2.83;;
20271;SDS011;10295;49.812;9.866;2023-09-30T06:03:10;14.40;;;2.70;;
20271;SDS011;10295;49.812;9.866;2023-09-30T06:05:39;10.73;;;3.00;;
20271;SDS011;10295;49.812;9.866;2023-09-30T06:08:07;12.00;;;2.53;;
20271;SDS011;10295;49.812;9.866;2023-09-30T06:10:36;13.20;;;2.50;;
20271;SDS011;10295;49.812;9.866;2023-09-30T06:13:05;10.73;;;2.80;;
20271;SDS011;10295;49.812;9.866;2023-09-30T06:15:32;10.97;;;2.73;;
20271;SDS011;10295;49.812;9.866;2023-09-30T06:17:59;13.13;;;2.50;;
20271;SDS011;10295;49.812;9.866;2023-09-30T06:20:27;9.80;;;2.27;;
20271;SDS011;10295;49.812;9.866;2023-09-30T06:22:57;9.87;;;2.10;;
20271;SDS011;10295;49.812;9.866;2023-09-30T06:25:24;12.33;;;2.60;;
20271;SDS011;10295;49.812;9.866;2023-09-30T06:27:52;12.17;;;2.70;;
20271;SDS011;10295;49.812;9.866;2023-09-30T06:30:21;15.40;;;2.77;;
20271;SDS011;10295;49.812;9.866;2023-09-30T06:32:56;12.60;;;2.73;;
20271;SDS011;10295;49.812;9.866;2023-09-30T06:35:26;11.63;;;2.47;;
20271;SDS011;10295;49.812;9.866;2023-09-30T06:37:53;14.33;;;2.50;;
20271;SDS011;10295;49.812;9.866;2023-09-30T06:40:20;11.27;;;2.63;;
20271;SDS011;10295;49.812;9.866;2023-09-30T06:42:48;9.03;;;2.53;;
20271;SDS011;10295;49.812;9.866;2023-09-30T06:45:15;11.73;;;2.53;;
20271;SDS011;10295;49.812;9.866;2023-09-30T06:47:43;11.45;;;2.67;;
20271;SDS011;10295;49.812;9.866;2023-09-30T06:50:12;10.80;;;2.55;;
20271;SDS011;10295;49.812;9.866;2023-09-30T06:52:43;8.35;;;2.40;;
20271;SDS011;10295;49.812;9.866;2023-09-30T06:55:16;9.15;;;2.33;;
20271;SDS011;10295;49.812;9.866;2023-09-30T06:57:44;7.32;;;2.03;;
20271;SDS011;10295;49.812;9.866;2023-09-30T07:00:13;9.60;;;2.60;;
20271;SDS011;10295;49.812;9.866;2023-09-30T07:02:40;10.45;;;2.25;;
20271;SDS011;10295;49.812;9.866;2023-09-30T07:05:09;7.90;;;2.17;;
20271;SDS011;10295;49.812;9.866;2023-09-30T07:07:37;10.30;;;2.63;;
20271;SDS011;10295;49.812;9.866;2023-09-30T07:10:05;8.55;;;2.50;;
20271;SDS011;10295;49.812;9.866;2023-09-30T07:12:37;10.57;;;2.53;;
20271;SDS011;10295;49.812;9.866;2023-09-30T07:15:08;12.20;;;2.45;;
20271;SDS011;10295;49.812;9.866;2023-09-30T07:17:35;11.75;;;2.53;;
20271;SDS011;10295;49.812;9.866;2023-09-30T07:20:03;11.82;;;2.75;;
20271;SDS011;10295;49.812;9.866;2023-09-30T07:22:32;11.98;;;2.40;;
20271;SDS011;10295;49.812;9.866;2023-09-30T07:25:20;10.15;;;2.60;;
20271;SDS011;10295;49.812;9.866;2023-09-30T07:27:48;9.48;;;2.42;;
20271;SDS011;10295;49.812;9.866;2023-09-30T07:30:16;12.02;;;2.63;;
20271;SDS011;10295;49.812;9.866;2023-09-30T07:32:44;11.35;;;3.20;;
20271;SDS011;10295;49.812;9.866;2023-09-30T07:35:13;10.27;;;3.30;;
20271;SDS011;10295;49.812;9.866;2023-09-30T07:37:42;8.93;;;2.65;;
20271;SDS011;10295;49.812;9.866;2023-09-30T07:40:10;11.48;;;2.92;;
20271;SDS011;10295;49.812;9.866;2023-09-30T07:42:37;8.48;;;2.70;;
20271;SDS011;10295;49.812;9.866;2023-09-30T07:45:05;8.63;;;2.70;;
20271;SDS011;10295;49.812;9.866;2023-09-30T07:47:32;12.50;;;2.75;;
20271;SDS011;10295;49.812;9.866;2023-09-30T07:50:01;12.20;;;3.22;;
20271;SDS011;10295;49.812;9.866;2023-09-30T07:52:36;9.32;;;2.60;;
20271;SDS011;10295;49.812;9.866;2023-09-30T07:55:06;8.98;;;2.75;;
20271;SDS011;10295;49.812;9.866;2023-09-30T07:57:35;11.57;;;2.60;;
20271;SDS011;10295;49.812;9.866;2023-09-30T08:00:02;9.95;;;2.70;;
20271;SDS011;10295;49.812;9.866;2023-09-30T08:02:35;8.18;;;2.55;;
20271;SDS011;10295;49.812;9.866;2023-09-30T08:05:03;10.43;;;2.85;;
20271;SDS011;10295;49.812;9.866;2023-09-30T08:07:32;9.85;;;2.70;;
20271;SDS011;10295;49.812;9.866;2023-09-30T08:10:00;10.38;;;2.70;;
20271;SDS011;10295;49.812;9.866;2023-09-30T08:12:30;10.77;;;2.92;;
20271;SDS011;10295;49.812;9.866;2023-09-30T08:14:58;7.95;;;2.35;;
20271;SDS011;10295;49.812;9.866;2023-09-30T08:17:25;8.93;;;2.78;;
20271;SDS011;10295;49.812;9.866;2023-09-30T08:19:53;8.43;;;2.67;;
20271;SDS011;10295;49.812;9.866;2023-09-30T08:22:20;11.32;;;2.60;;
20271;SDS011;10295;49.812;9.866;2023-09-30T08:24:51;12.73;;;2.80;;
20271;SDS011;10295;49.812;9.866;2023-09-30T08:27:18;10.27;;;2.58;;
20271;SDS011;10295;49.812;9.866;2023-09-30T08:29:46;10.88;;;3.17;;
20271;SDS011;10295;49.812;9.866;2023-09-30T08:32:13;8.60;;;2.80;;
20271;SDS011;10295;49.812;9.866;2023-09-30T08:34:41;9.07;;;2.67;;
20271;SDS011;10295;49.812;9.866;2023-09-30T08:37:09;10.00;;;2.45;;
20271;SDS011;10295;49.812;9.866;2023-09-30T08:39:39;10.40;;;2.75;;
20271;SDS011;10295;49.812;9.866;2023-09-30T08:42:10;7.70;;;2.55;;
20271;SDS011;10295;49.812;9.866;2023-09-30T08:44:38;10.35;;;2.58;;
20271;SDS011;10295;49.812;9.866;2023-09-30T08:47:06;13.05;;;2.83;;
20271;SDS011;10295;49.812;9.866;2023-09-30T08:49:40;12.38;;;2.95;;
20271;SDS011;10295;49.812;9.866;2023-09-30T08:52:09;10.23;;;2.55;;
20271;SDS011;10295;49.812;9.866;2023-09-30T08:54:36;11.35;;;2.78;;
20271;SDS011;10295;49.812;9.866;2023-09-30T08:57:05;8.90;;;2.55;;
20271;SDS011;10295;49.812;9.866;2023-09-30T08:59:34;11.25;;;2.80;;
20271;SDS011;10295;49.812;9.866;2023-09-30T09:02:07;8.93;;;2.60;;
20271;SDS011;10295;49.812;9.866;2023-09-30T09:04:36;9.68;;;2.38;;
20271;SDS011;10295;49.812;9.866;2023-09-30T09:07:03;10.27;;;2.42;;
20271;SDS011;10295;49.812;9.866;2023-09-30T09:09:31;10.18;;;2.47;;
20271;SDS011;10295;49.812;9.866;2023-09-30T09:11:59;10.45;;;2.88;;
20271;SDS011;10295;49.812;9.866;2023-09-30T09:14:39;9.75;;;2.47;;
20271;SDS011;10295;49.812;9.866;2023-09-30T09:17:07;10.80;;;2.85;;
20271;SDS011;10295;49.812;9.866;2023-09-30T09:19:35;10.60;;;2.67;;
20271;SDS011;10295;49.812;9.866;2023-09-30T09:22:03;8.35;;;2.78;;
20271;SDS011;10295;49.812;9.866;2023-09-30T09:24:32;8.98;;;2.70;;
20271;SDS011;10295;49.812;9.866;2023-09-30T09:27:09;9.93;;;3.35;;
20271;SDS011;10295;49.812;9.866;2023-09-30T09:29:38;10.25;;;2.97;;
20271;SDS011;10295;49.812;9.866;2023-09-30T09:32:07;14.18;;;2.97;;
20271;SDS011;10295;49.812;9.866;2023-09-30T09:34:35;9.57;;;2.90;;
20271;SDS011;10295;49.812;9.866;2023-09-30T09:39:48;12.52;;;3.50;;
20271;SDS011;10295;49.812;9.866;2023-09-30T09:42:29;10.85;;;3.25;;
20271;SDS011;10295;49.812;9.866;2023-09-30T09:45:01;12.23;;;3.40;;
20271;SDS011;10295;49.812;9.866;2023-09-30T09:47:29;12.15;;;3.40;;
20271;SDS011;10295;49.812;9.866;2023-09-30T09:49:59;11.60;;;3.30;;
20271;SDS011;10295;49.812;9.866;2023-09-30T09:52:29;11.27;;;3.40;;
20271;SDS011;10295;49.812;9.866;2023-09-30T09:54:56;11.77;;;3.20;;
20271;SDS011;10295;49.812;9.866;2023-09-30T09:57:24;12.63;;;3.50;;
20271;SDS011;10295;49.812;9.866;2023-09-30T09:59:52;10.43;;;3.50;;
20271;SDS011;10295;49.812;9.866;2023-09-30T10:02:25;10.98;;;3.40;;
20271;SDS011;10295;49.812;9.866;2023-09-30T10:04:56;10.95;;;3.22;;
20271;SDS011;10295;49.812;9.866;2023-09-30T10:07:30;9.38;;;3.00;;
20271;SDS011;10295;49.812;9.866;2023-09-30T10:10:01;12.27;;;3.63;;
20271;SDS011;10295;49.812;9.866;2023-09-30T10:12:35;11.40;;;3.65;;
20271;SDS011;10295;49.812;9.866;2023-09-30T10:18:02;14.13;;;4.35;;
20271;SDS011;10295;49.812;9.866;2023-09-30T10:20:38;15.10;;;4.55;;
20271;SDS011;10295;49.812;9.866;2023-09-30T10:25:48;11.43;;;4.10;;
20271;SDS011;10295;49.812;9.866;2023-09-30T10:28:33;13.32;;;4.10;;
20271;SDS011;10295;49.812;9.866;2023-09-30T10:31:13;13.90;;;4.10;;
20271;SDS011;10295;49.812;9.866;2023-09-30T10:36:33;13.40;;;4.10;;
20271;SDS011;10295;49.812;9.866;2023-09-30T10:39:01;12.80;;;4.10;;
20271;SDS011;10295;49.812;9.866;2023-09-30T10:46:59;12.50;;;4.00;;
20271;SDS011;10295;49.812;9.866;2023-09-30T10:51:56;10.10;;;4.30;;
20271;SDS011;10295;49.812;9.866;2023-09-30T10:54:30;11.45;;;4.38;;
20271;SDS011;10295;49.812;9.866;2023-09-30T10:56:58;13.88;;;4.90;;
20271;SDS011;10295;49.812;9.866;2023-09-30T10:59:26;12.00;;;4.95;;
20271;SDS011;10295;49.812;9.866;2023-09-30T11:01:57;14.15;;;5.28;;
20271;SDS011;10295;49.812;9.866;2023-09-30T11:04:25;13.02;;;4.72;;
20271;SDS011;10295;49.812;9.866;2023-09-30T11:06:54;11.75;;;4.82;;
20271;SDS011;10295;49.812;9.866;2023-09-30T11:09:22;14.88;;;4.88;;
20271;SDS011;10295;49.812;9.866;2023-09-30T11:11:51;13.13;;;4.75;;
20271;SDS011;10295;49.812;9.866;2023-09-30T11:14:22;13.88;;;5.28;;
20271;SDS011;10295;49.812;9.866;2023-09-30T11:16:59;12.40;;;4.53;;
20271;SDS011;10295;49.812;9.866;2023-09-30T11:19:34;14.93;;;5.43;;
20271;SDS011;10295;49.812;9.866;2023-09-30T11:22:02;15.45;;;5.28;;
20271;SDS011;10295;49.812;9.866;2023-09-30T11:24:34;13.88;;;4.80;;
20271;SDS011;10295;49.812;9.866;2023-09-30T11:27:02;10.75;;;4.60;;
20271;SDS011;10295;49.812;9.866;2023-09-30T11:29:30;12.35;;;4.43;;
20271;SDS011;10295;49.812;9.866;2023-09-30T11:31:58;12.15;;;4.60;;
20271;SDS011;10295;49.812;9.866;2023-09-30T11:34:34;11.63;;;4.75;;
20271;SDS011;10295;49.812;9.866;2023-09-30T11:37:05;11.52;;;4.53;;
20271;SDS011;10295;49.812;9.866;2023-09-30T11:39:32;12.02;;;4.63;;
20271;SDS011;10295;49.812;9.866;2023-09-30T11:42:00;12.52;;;4.13;;
20271;SDS011;10295;49.812;9.866;2023-09-30T11:44:27;14.23;;;4.88;;
20271;SDS011;10295;49.812;9.866;2023-09-30T11:46:59;14.40;;;4.50;;
20271;SDS011;10295;49.812;9.866;2023-09-30T11:51:59;14.40;;;4.43;;
20271;SDS011;10295;49.812;9.866;2023-09-30T11:54:30;15.07;;;4.15;;
20271;SDS011;10295;49.812;9.866;2023-09-30T11:57:01;13.30;;;4.90;;
20271;SDS011;10295;49.812;9.866;2023-09-30T11:59:30;12.95;;;4.65;;
20271;SDS011;10295;49.812;9.866;2023-09-30T12:01:57;12.32;;;4.60;;
20271;SDS011;10295;49.812;9.866;2023-09-30T12:04:40;12.70;;;4.63;;
20271;SDS011;10295;49.812;9.866;2023-09-30T12:07:08;11.93;;;4.80;;
20271;SDS011;10295;49.812;9.866;2023-09-30T12:09:35;12.90;;;4.63;;
20271;SDS011;10295;49.812;9.866;2023-09-30T12:12:04;14.15;;;5.25;;
20271;SDS011;10295;49.812;9.866;2023-09-30T12:14:36;11.77;;;4.93;;
20271;SDS011;10295;49.812;9.866;2023-09-30T12:17:03;12.70;;;4.40;;
20271;SDS011;10295;49.812;9.866;2023-09-30T12:19:31;13.10;;;4.68;;
20271;SDS011;10295;49.812;9.866;2023-09-30T12:21:58;13.48;;;4.25;;
20271;SDS011;10295;49.812;9.866;2023-09-30T12:24:25;11.57;;;4.38;;
20271;SDS011;10295;49.812;9.866;2023-09-30T12:26:53;13.30;;;4.70;;
20271;SDS011;10295;49.812;9.866;2023-09-30T12:29:21;13.93;;;4.80;;
20271;SDS011;10295;49.812;9.866;2023-09-30T12:31:51;12.63;;;4.88;;
20271;SDS011;10295;49.812;9.866;2023-09-30T12:34:20;11.35;;;4.72;;
20271;SDS011;10295;49.812;9.866;2023-09-30T12:36:53;12.95;;;4.90;;
20271;SDS011;10295;49.812;9.866;2023-09-30T12:39:23;13.20;;;4.95;;
20271;SDS011;10295;49.812;9.866;2023-09-30T12:41:53;12.38;;;4.97;;
20271;SDS011;10295;49.812;9.866;2023-09-30T12:44:21;12.40;;;4.45;;
20271;SDS011;10295;49.812;9.866;2023-09-30T12:46:49;12.52;;;5.00;;
20271;SDS011;10295;49.812;9.866;2023-09-30T12:49:17;13.70;;;4.82;;
20271;SDS011;10295;49.812;9.866;2023-09-30T12:51:45;13.43;;;5.18;;
20271;SDS011;10295;49.812;9.866;2023-09-30T12:54:13;13.10;;;5.30;;
20271;SDS011;10295;49.812;9.866;2023-09-30T12:56:41;11.43;;;4.55;;
20271;SDS011;10295;49.812;9.866;2023-09-30T12:59:09;12.68;;;4.40;;
20271;SDS011;10295;49.812;9.866;2023-09-30T13:01:36;12.15;;;4.50;;
20271;SDS011;10295;49.812;9.866;2023-09-30T13:04:03;12.07;;;4.50;;
20271;SDS011;10295;49.812;9.866;2023-09-30T13:06:34;10.43;;;4.25;;
20271;SDS011;10295;49.812;9.866;2023-09-30T13:09:02;13.05;;;4.97;;
20271;SDS011;10295;49.812;9.866;2023-09-30T13:11:31;11.45;;;4.75;;
20271;SDS011;10295;49.812;9.866;2023-09-30T13:14:02;13.40;;;4.63;;
20271;SDS011;10295;49.812;9.866;2023-09-30T13:16:30;13.23;;;4.28;;
20271;SDS011;10295;49.812;9.866;2023-09-30T13:18:57;12.15;;;4.13;;
20271;SDS011;10295;49.812;9.866;2023-09-30T13:21:25;12.95;;;4.85;;
20271;SDS011;10295;49.812;9.866;2023-09-30T13:23:52;12.02;;;4.72;;
20271;SDS011;10295;49.812;9.866;2023-09-30T13:26:21;11.13;;;4.72;;
20271;SDS011;10295;49.812;9.866;2023-09-30T13:28:49;13.40;;;4.82;;
20271;SDS011;10295;49.812;9.866;2023-09-30T13:31:16;11.35;;;4.80;;
20271;SDS011;10295;49.812;9.866;2023-09-30T13:33:43;13.45;;;4.93;;
20271;SDS011;10295;49.812;9.866;2023-09-30T13:36:10;12.20;;;4.90;;
20271;SDS011;10295;49.812;9.866;2023-09-30T13:38:38;11.65;;;4.72;;
20271;SDS011;10295;49.812;9.866;2023-09-30T13:41:05;10.65;;;4.50;;
20271;SDS011;10295;49.812;9.866;2023-09-30T13:43:32;12.63;;;4.95;;
20271;SDS011;10295;49.812;9.866;2023-09-30T13:46:03;12.77;;;4.90;;
20271;SDS011;10295;49.812;9.866;2023-09-30T13:48:30;13.93;;;5.28;;
20271;SDS011;10295;49.812;9.866;2023-09-30T13:51:07;12.23;;;4.88;;
20271;SDS011;10295;49.812;9.866;2023-09-30T13:53:34;13.27;;;5.03;;
20271;SDS011;10295;49.812;9.866;2023-09-30T13:56:02;13.23;;;5.05;;
20271;SDS011;10295;49.812;9.866;2023-09-30T13:58:30;13.38;;;5.05;;
20271;SDS011;10295;49.812;9.866;2023-09-30T14:00:57;13.20;;;5.25;;
20271;SDS011;10295;49.812;9.866;2023-09-30T14:03:25;12.18;;;4.72;;
20271;SDS011;10295;49.812;9.866;2023-09-30T14:05:52;12.65;;;4.63;;
20271;SDS011;10295;49.812;9.866;2023-09-30T14:08:20;13.15;;;4.90;;
20271;SDS011;10295;49.812;9.866;2023-09-30T14:10:48;13.48;;;5.13;;
20271;SDS011;10295;49.812;9.866;2023-09-30T14:13:16;12.57;;;4.70;;
20271;SDS011;10295;49.812;9.866;2023-09-30T14:15:43;13.93;;;4.93;;
20271;SDS011;10295;49.812;9.866;2023-09-30T14:18:10;14.05;;;5.10;;
20271;SDS011;10295;49.812;9.866;2023-09-30T14:20:38;13.48;;;5.15;;
20271;SDS011;10295;49.812;9.866;2023-09-30T14:23:06;13.90;;;5.10;;
20271;SDS011;10295;49.812;9.866;2023-09-30T14:25:33;11.85;;;4.70;;
20271;SDS011;10295;49.812;9.866;2023-09-30T14:28:00;15.07;;;4.78;;
20271;SDS011;10295;49.812;9.866;2023-09-30T14:30:28;11.25;;;4.15;;
20271;SDS011;10295;49.812;9.866;2023-09-30T14:32:55;11.70;;;4.20;;
20271;SDS011;10295;49.812;9.866;2023-09-30T14:35:23;12.65;;;4.63;;
20271;SDS011;10295;49.812;9.866;2023-09-30T14:37:50;11.80;;;4.40;;
20271;SDS011;10295;49.812;9.866;2023-09-30T14:40:20;11.00;;;4.18;;
20271;SDS011;10295;49.812;9.866;2023-09-30T14:42:47;12.18;;;4.40;;
20271;SDS011;10295;49.812;9.866;2023-09-30T14:45:15;11.77;;;4.50;;
20271;SDS011;10295;49.812;9.866;2023-09-30T14:47:42;11.35;;;4.05;;
20271;SDS011;10295;49.812;9.866;2023-09-30T14:50:10;13.23;;;4.13;;
20271;SDS011;10295;49.812;9.866;2023-09-30T14:52:38;11.88;;;4.03;;
20271;SDS011;10295;49.812;9.866;2023-09-30T14:55:07;10.25;;;4.07;;
20271;SDS011;10295;49.812;9.866;2023-09-30T14:57:35;11.65;;;4.45;;
20271;SDS011;10295;49.812;9.866;2023-09-30T15:00:02;11.40;;;4.07;;
20271;SDS011;10295;49.812;9.866;2023-09-30T15:02:29;10.40;;;3.75;;
20271;SDS011;10295;49.812;9.866;2023-09-30T15:04:57;12.10;;;4.03;;
20271;SDS011;10295;49.812;9.866;2023-09-30T15:07:24;11.68;;;4.05;;